Time;durP1;ratioP1;P1;durP2;ratioP2;P2;SDS_P1;SDS_P2;PMS_P1;PMS_P2;Temp;Humidity;BMP_temperature;BMP_pressure;BME280_temperature;BME280_humidity;BME280_pressure;Samples;Min_cycle;Max_cycle;Signal;HPM_P1;HPM_P2
2024/03/11 00:00:49;;;;;;;11.70;8.50;;;;;;;12.69;56.34;102141.54;106936;1269;25466;-57
2024/03/11 00:03:15;;;;;;;12.90;9.10;;;;;;;12.67;56.36;102142.95;107070;1256;24272;-57
2024/03/11 00:05:45;;;;;;;10.10;8.60;;;;;;;12.67;56.29;102143.48;106376;1267;25498;-58
2024/03/11 00:08:17;;;;;;;12.80;9.00;;;;;;;12.66;56.29;102139.98;106681;1263;23273;-57
2024/03/11 00:10:45;;;;;;;16.20;9.90;;;;;;;12.66;56.25;102139.11;106522;1268;25369;-58
2024/03/11 00:13:16;;;;;;;12.60;9.80;;;;;;;12.66;56.25;102135.29;106278;1264;1002535;-57
2024/03/11 00:15:44;;;;;;;11.80;9.50;;;;;;;12.65;56.25;102135.98;107101;1259;25331;-57
2024/03/11 00:18:13;;;;;;;14.20;9.80;;;;;;;12.65;56.27;102139.82;107146;1259;23159;-57
2024/03/11 00:20:40;;;;;;;14.50;8.80;;;;;;;12.65;56.20;102138.08;106783;1261;22531;-57
2024/03/11 00:23:07;;;;;;;12.30;9.60;;;;;;;12.66;56.21;102142.08;107013;1265;22533;-57
2024/03/11 00:25:35;;;;;;;13.30;9.10;;;;;;;12.65;56.23;102147.64;107074;1268;25500;-57
2024/03/11 00:28:03;;;;;;;11.30;8.90;;;;;;;12.65;56.28;102146.27;106778;1265;25351;-57
2024/03/11 00:30:30;;;;;;;14.70;9.90;;;;;;;12.66;56.23;102154.78;107167;1258;25469;-57
2024/03/11 00:32:59;;;;;;;11.10;8.90;;;;;;;12.66;56.13;102157.92;106764;1264;25369;-57
2024/03/11 00:35:26;;;;;;;11.10;8.60;;;;;;;12.65;56.16;102157.23;107103;1260;24207;-58
2024/03/11 00:37:53;;;;;;;17.80;10.50;;;;;;;12.66;56.16;102149.21;107028;1267;25498;-58
2024/03/11 00:40:23;;;;;;;12.30;9.20;;;;;;;12.65;56.12;102149.91;106358;1269;1002943;-57
2024/03/11 00:42:53;;;;;;;13.80;9.90;;;;;;;12.65;56.07;102151.64;107125;1256;22537;-58
2024/03/11 00:45:23;;;;;;;13.10;9.70;;;;;;;12.64;55.99;102150.79;107088;1263;25351;-57
2024/03/11 00:47:50;;;;;;;16.60;10.10;;;;;;;12.63;56.03;102155.16;107028;1265;25376;-57
2024/03/11 00:50:19;;;;;;;15.90;10.60;;;;;;;12.62;56.01;102154.81;107042;1266;25360;-57
2024/03/11 00:52:47;;;;;;;15.40;10.70;;;;;;;12.61;56.05;102151.70;107190;1260;25367;-57
2024/03/11 00:55:15;;;;;;;15.70;10.90;;;;;;;12.61;56.01;102149.41;107146;1267;22551;-58
2024/03/11 00:57:42;;;;;;;17.40;10.60;;;;;;;12.60;56.00;102148.91;106908;1259;25505;-57
2024/03/11 01:00:14;;;;;;;15.10;10.90;;;;;;;12.60;56.02;102147.52;107102;1264;25351;-58
2024/03/11 01:02:41;;;;;;;17.50;11.90;;;;;;;12.61;56.02;102152.21;107087;1256;22600;-57
2024/03/11 01:05:09;;;;;;;17.10;11.30;;;;;;;12.60;55.94;102152.40;107120;1260;25341;-57
2024/03/11 01:07:37;;;;;;;19.10;11.10;;;;;;;12.60;55.97;102149.79;106945;1272;24314;-57
2024/03/11 01:10:16;;;;;;;17.40;10.10;;;;;;;12.60;55.95;102146.66;107165;1264;25307;-57
2024/03/11 01:12:43;;;;;;;19.30;11.10;;;;;;;12.60;55.97;102142.30;107104;1256;25453;-57
2024/03/11 01:15:10;;;;;;;20.50;11.60;;;;;;;12.60;55.93;102141.95;106864;1257;25341;-58
2024/03/11 01:17:39;;;;;;;19.50;11.60;;;;;;;12.60;55.94;102142.66;106802;1260;25504;-58
2024/03/11 01:20:13;;;;;;;18.30;10.90;;;;;;;12.61;55.93;102139.52;107150;1271;22531;-57
2024/03/11 01:22:40;;;;;;;19.50;10.80;;;;;;;12.60;55.88;102136.90;107092;1262;25369;-57
2024/03/11 01:25:09;;;;;;;15.00;10.00;;;;;;;12.60;55.81;102132.02;106303;1252;1015718;-57
2024/03/11 01:27:36;;;;;;;20.50;11.30;;;;;;;12.60;55.80;102126.45;106760;1267;24291;-57
2024/03/11 01:30:03;;;;;;;17.00;10.50;;;;;;;12.59;55.76;102123.15;106681;1270;25336;-58
2024/03/11 01:32:30;;;;;;;15.40;10.80;;;;;;;12.58;55.72;102126.30;106893;1266;22526;-57
2024/03/11 01:34:58;;;;;;;17.70;10.10;;;;;;;12.58;55.65;102123.16;106918;1264;25341;-57
2024/03/11 01:37:25;;;;;;;13.60;9.70;;;;;;;12.57;55.61;102123.88;107200;1257;25384;-58
2024/03/11 01:39:52;;;;;;;21.10;10.50;;;;;;;12.56;55.59;102128.58;106828;1271;25369;-57
2024/03/11 01:42:20;;;;;;;17.60;11.50;;;;;;;12.54;55.45;102133.48;107210;1261;25407;-57
2024/03/11 01:44:51;;;;;;;16.00;9.90;;;;;;;12.52;55.30;102135.75;107206;1270;22553;-57
2024/03/11 01:47:21;;;;;;;19.50;11.30;;;;;;;12.52;55.24;102138.02;106171;1272;1002377;-57
2024/03/11 01:49:52;;;;;;;16.90;10.80;;;;;;;12.49;55.15;102144.13;106812;1256;22759;-58
2024/03/11 01:52:36;;;;;;;20.90;11.30;;;;;;;12.47;55.03;102147.28;107080;1256;24231;-57
2024/03/11 01:55:04;;;;;;;14.90;9.50;;;;;;;12.43;54.88;102151.33;107168;1257;25348;-58
2024/03/11 01:57:33;;;;;;;19.50;9.60;;;;;;;12.41;54.66;102152.73;107126;1263;22623;-57
2024/03/11 01:59:59;;;;;;;13.60;8.40;;;;;;;12.37;54.46;102155.00;107102;1263;22516;-57
2024/03/11 02:02:27;;;;;;;12.40;8.90;;;;;;;12.34;54.29;102158.85;106980;1274;22662;-57
2024/03/11 02:04:54;;;;;;;15.20;9.40;;;;;;;12.30;54.11;102161.33;107079;1267;25351;-58
2024/03/11 02:07:21;;;;;;;13.20;8.70;;;;;;;12.27;53.90;102166.04;106814;1271;25344;-57
2024/03/11 02:09:48;;;;;;;13.60;8.10;;;;;;;12.24;53.95;102166.75;106550;1270;414145;-57
2024/03/11 02:12:17;;;;;;;17.20;8.20;;;;;;;12.22;53.96;102171.10;107113;1267;25341;-57
2024/03/11 02:14:47;;;;;;;11.00;8.40;;;;;;;12.19;53.84;102167.48;107063;1268;25360;-57
2024/03/11 02:17:15;;;;;;;14.70;8.60;;;;;;;12.17;53.75;102163.31;107083;1260;25399;-58
2024/03/11 02:19:42;;;;;;;10.70;7.50;;;;;;;12.14;53.65;102159.33;107058;1262;22578;-57
2024/03/11 02:22:09;;;;;;;11.30;8.50;;;;;;;12.11;53.51;102157.42;106808;1260;25365;-57
2024/03/11 02:24:36;;;;;;;13.60;9.70;;;;;;;12.09;53.48;102156.22;107026;1266;23913;-57
2024/03/11 02:27:04;;;;;;;12.00;9.10;;;;;;;12.07;53.43;102162.86;106803;1259;25419;-58
2024/03/11 02:29:31;;;;;;;13.00;8.40;;;;;;;12.05;53.38;102166.16;107070;1254;22538;-58
2024/03/11 02:31:58;;;;;;;15.60;9.00;;;;;;;12.04;53.30;102171.92;107060;1267;25379;-58
2024/03/11 02:34:25;;;;;;;13.80;8.70;;;;;;;12.01;53.22;102175.40;106311;1251;1002837;-58
2024/03/11 02:36:53;;;;;;;16.20;9.60;;;;;;;11.99;53.19;102174.71;107087;1267;25398;-58
2024/03/11 02:39:20;;;;;;;17.20;9.10;;;;;;;11.98;53.19;102176.98;107113;1261;25341;-57
2024/03/11 02:41:49;;;;;;;13.90;9.30;;;;;;;11.97;53.28;102174.55;107058;1268;25375;-58
2024/03/11 02:44:17;;;;;;;16.10;9.50;;;;;;;11.97;53.42;102172.66;106522;1264;25448;-57
2024/03/11 02:46:44;;;;;;;13.90;9.20;;;;;;;11.96;53.50;102173.00;107173;1267;22608;-57
2024/03/11 02:49:11;;;;;;;14.80;9.40;;;;;;;11.97;53.54;102174.55;106821;1260;25373;-57
2024/03/11 02:51:38;;;;;;;13.20;8.80;;;;;;;11.98;53.63;102176.46;106727;1257;25344;-58
2024/03/11 02:54:05;;;;;;;18.90;10.40;;;;;;;11.98;53.67;102176.98;106997;1257;24257;-57
2024/03/11 02:56:32;;;;;;;17.80;9.90;;;;;;;11.99;53.69;102171.08;107113;1255;22520;-58
2024/03/11 02:59:00;;;;;;;18.00;10.40;;;;;;;11.94;54.00;102171.63;107187;1263;22529;-57
2024/03/11 03:01:30;;;;;;;17.00;10.40;;;;;;;11.86;54.42;102172.02;106301;1267;1003517;-58
2024/03/11 03:03:57;;;;;;;18.10;10.20;;;;;;;11.86;54.61;102175.84;107039;1262;25445;-58
2024/03/11 03:06:24;;;;;;;22.20;10.00;;;;;;;11.87;54.72;102173.40;107160;1257;25365;-58
2024/03/11 03:08:51;;;;;;;18.50;10.60;;;;;;;11.88;54.84;102177.20;106694;1267;22525;-57
2024/03/11 03:11:18;;;;;;;18.00;10.30;;;;;;;11.88;54.84;102180.52;107051;1254;25360;-57
2024/03/11 03:13:46;;;;;;;16.90;10.40;;;;;;;11.89;55.01;102177.56;107067;1262;25418;-58
2024/03/11 03:16:13;;;;;;;17.30;11.00;;;;;;;11.90;55.28;102177.72;107114;1254;22543;-58
2024/03/11 03:18:39;;;;;;;17.70;10.80;;;;;;;11.91;55.37;102177.02;106795;1267;25523;-58
2024/03/11 03:21:07;;;;;;;18.20;11.00;;;;;;;11.92;55.50;102184.33;106374;1257;1003659;-58
2024/03/11 03:23:34;;;;;;;16.20;10.30;;;;;;;11.94;55.62;102191.77;106807;1259;23870;-58
2024/03/11 03:26:01;;;;;;;17.20;11.20;;;;;;;11.95;55.62;102200.30;107085;1257;25341;-57
2024/03/11 03:28:28;;;;;;;16.40;10.30;;;;;;;11.97;55.67;102201.68;107149;1257;25368;-57
2024/03/11 03:30:58;;;;;;;15.50;10.40;;;;;;;11.99;55.73;102202.02;107118;1264;25501;-57
2024/03/11 03:33:26;;;;;;;16.20;10.30;;;;;;;12.01;55.76;102205.15;106997;1263;25348;-58
2024/03/11 03:35:53;;;;;;;16.80;10.50;;;;;;;12.03;55.75;102204.96;107044;1256;22536;-58
2024/03/11 03:38:20;;;;;;;17.50;10.40;;;;;;;12.03;55.66;102203.74;107124;1261;25351;-57
2024/03/11 03:40:47;;;;;;;15.30;9.60;;;;;;;12.03;55.59;102208.10;106396;1258;1003483;-57
2024/03/11 03:43:14;;;;;;;14.30;10.30;;;;;;;11.99;55.48;102217.68;106771;1260;25487;-58
2024/03/11 03:45:42;;;;;;;13.10;10.10;;;;;;;11.91;55.69;102221.02;107204;1257;25379;-58
2024/03/11 03:48:09;;;;;;;15.00;11.50;;;;;;;11.81;56.08;102222.27;107081;1263;22533;-58
2024/03/11 03:50:37;;;;;;;21.50;14.10;;;;;;;11.68;56.49;102224.57;107013;1257;25341;-57
2024/03/11 03:53:04;;;;;;;24.40;15.40;;;;;;;11.60;57.04;102222.30;107130;1251;25497;-57
2024/03/11 03:55:37;;;;;;;16.40;11.80;;;;;;;11.59;57.50;102219.87;107090;1257;25299;-58
2024/03/11 03:58:04;;;;;;;14.20;11.20;;;;;;;11.62;57.92;102224.73;107099;1257;25488;-58
2024/03/11 04:00:34;;;;;;;12.90;10.60;;;;;;;11.65;58.27;102230.45;106784;1263;24303;-58
2024/03/11 04:03:04;;;;;;;12.10;10.00;;;;;;;11.71;58.34;102231.87;107121;1257;25351;-58
2024/03/11 04:05:32;;;;;;;11.90;10.50;;;;;;;11.85;58.03;102230.77;106802;1265;25431;-58
2024/03/11 04:07:59;;;;;;;13.60;10.60;;;;;;;11.86;58.07;102233.39;107137;1264;22537;-58
2024/03/11 04:10:26;;;;;;;16.10;11.60;;;;;;;11.86;58.13;102233.56;106999;1267;25356;-58
2024/03/11 04:12:55;;;;;;;16.50;10.60;;;;;;;11.87;58.36;102238.77;107053;1257;25378;-58
2024/03/11 04:15:23;;;;;;;16.20;11.60;;;;;;;11.90;58.48;102242.60;107071;1263;22572;-58
2024/03/11 04:17:53;;;;;;;17.00;11.60;;;;;;;11.95;58.53;102241.34;106713;1274;25366;-58
2024/03/11 04:20:22;;;;;;;15.80;11.70;;;;;;;12.01;58.55;102244.28;107162;1259;25296;-58
2024/03/11 04:22:50;;;;;;;15.10;11.20;;;;;;;12.05;58.46;102247.40;107114;1251;25504;-58
2024/03/11 04:25:28;;;;;;;16.30;11.80;;;;;;;12.07;58.53;102250.34;106805;1262;25399;-58
2024/03/11 04:27:55;;;;;;;14.30;10.20;;;;;;;12.09;58.52;102251.38;107007;1256;22621;-58
2024/03/11 04:30:31;;;;;;;13.40;10.60;;;;;;;12.10;58.45;102254.67;107092;1257;25409;-58
2024/03/11 04:32:58;;;;;;;14.80;11.40;;;;;;;12.10;58.61;102255.20;107103;1257;25389;-58
2024/03/11 04:35:28;;;;;;;14.20;10.50;;;;;;;12.13;58.71;102260.40;106836;1261;24036;-58
2024/03/11 04:37:55;;;;;;;13.60;10.40;;;;;;;12.16;58.70;102266.47;107072;1251;24252;-58
2024/03/11 04:40:27;;;;;;;17.00;10.80;;;;;;;12.18;58.74;102265.08;106824;1260;22762;-58
2024/03/11 04:42:54;;;;;;;17.00;10.70;;;;;;;12.23;58.78;102264.36;107028;1251;22528;-58
2024/03/11 04:45:22;;;;;;;15.20;11.30;;;;;;;12.27;58.71;102268.17;107098;1254;25369;-58
2024/03/11 04:47:49;;;;;;;12.70;10.50;;;;;;;12.30;58.65;102266.08;106346;1257;1002971;-58
2024/03/11 04:50:24;;;;;;;12.30;9.80;;;;;;;12.32;58.62;102272.84;106847;1262;25369;-58
2024/03/11 04:52:57;;;;;;;16.20;10.20;;;;;;;12.33;58.57;102275.80;107051;1258;22536;-58
2024/03/11 04:55:24;;;;;;;15.10;10.10;;;;;;;12.34;58.56;102276.49;107062;1260;25497;-58
2024/03/11 04:57:52;;;;;;;15.30;11.40;;;;;;;12.36;58.61;102279.61;106796;1267;25376;-58
2024/03/11 05:00:19;;;;;;;13.20;10.60;;;;;;;12.40;58.54;102284.81;107045;1258;25385;-58
2024/03/11 05:02:46;;;;;;;15.60;9.80;;;;;;;12.43;58.61;102289.48;107012;1257;25351;-58
2024/03/11 05:05:14;;;;;;;14.90;11.30;;;;;;;12.47;58.51;102288.26;107122;1258;25389;-58
2024/03/11 05:07:41;;;;;;;16.40;10.70;;;;;;;12.54;58.37;102292.39;107068;1264;25341;-58
2024/03/11 05:10:09;;;;;;;13.50;10.40;;;;;;;12.55;58.33;102295.88;107139;1257;25428;-58
2024/03/11 05:12:35;;;;;;;14.00;10.20;;;;;;;12.56;58.36;102298.83;107096;1251;25501;-57
2024/03/11 05:15:05;;;;;;;14.60;10.70;;;;;;;12.59;58.28;102307.16;106097;1255;1002856;-57
2024/03/11 05:17:32;;;;;;;12.10;9.20;;;;;;;12.61;58.22;102312.38;107092;1256;24073;-57
2024/03/11 05:19:59;;;;;;;13.30;10.00;;;;;;;12.62;58.23;102320.20;107053;1258;25351;-57
2024/03/11 05:22:26;;;;;;;16.70;11.10;;;;;;;12.62;58.16;102324.91;107053;1261;22655;-58
2024/03/11 05:24:53;;;;;;;14.60;10.20;;;;;;;12.61;58.17;102325.77;107004;1264;22524;-57
2024/03/11 05:27:20;;;;;;;11.60;9.40;;;;;;;12.62;58.20;102330.66;107095;1253;25380;-57
2024/03/11 05:29:48;;;;;;;14.60;9.90;;;;;;;12.64;58.29;102333.59;107002;1256;25366;-57
2024/03/11 05:32:15;;;;;;;11.60;10.30;;;;;;;12.68;58.34;102336.90;107140;1257;25327;-57
2024/03/11 05:34:43;;;;;;;13.60;9.60;;;;;;;12.72;58.26;102338.45;106863;1261;25444;-57
2024/03/11 05:37:10;;;;;;;18.50;10.70;;;;;;;12.74;58.14;102340.17;107095;1255;25372;-57
2024/03/11 05:39:37;;;;;;;14.70;10.30;;;;;;;12.76;58.15;102340.86;106789;1256;25430;-57
2024/03/11 05:42:05;;;;;;;10.90;9.70;;;;;;;12.78;58.06;102342.77;107062;1261;25363;-57
2024/03/11 05:44:35;;;;;;;14.00;9.80;;;;;;;12.77;58.01;102350.08;107176;1256;25369;-58
2024/03/11 05:47:02;;;;;;;14.90;10.50;;;;;;;12.77;58.05;102351.99;107043;1257;25488;-58
2024/03/11 05:49:32;;;;;;;12.30;10.30;;;;;;;12.77;57.99;102355.65;106996;1257;25403;-58
2024/03/11 05:51:59;;;;;;;15.50;9.60;;;;;;;12.76;57.99;102360.19;107016;1267;23889;-57
2024/03/11 05:54:26;;;;;;;13.80;9.50;;;;;;;12.73;58.04;102359.50;107113;1256;25404;-57
2024/03/11 05:56:56;;;;;;;11.40;9.10;;;;;;;12.73;58.04;102366.64;107083;1254;25411;-57
2024/03/11 05:59:23;;;;;;;14.60;10.90;;;;;;;12.73;58.09;102365.77;107031;1261;24837;-58
2024/03/11 06:01:51;;;;;;;16.60;10.10;;;;;;;12.73;58.14;102370.48;106786;1259;25430;-57
2024/03/11 06:04:18;;;;;;;16.60;9.90;;;;;;;12.73;58.07;102375.87;106841;1264;25330;-57
2024/03/11 06:06:51;;;;;;;12.50;9.90;;;;;;;12.74;58.05;102377.42;106876;1256;25366;-57
2024/03/11 06:09:17;;;;;;;12.60;10.10;;;;;;;12.75;58.09;102377.78;106836;1259;23089;-58
2024/03/11 06:11:46;;;;;;;16.40;10.40;;;;;;;12.76;58.14;102383.16;106947;1252;25501;-57
2024/03/11 06:14:13;;;;;;;14.60;10.70;;;;;;;12.78;58.09;102384.90;106901;1253;22642;-57
2024/03/11 06:16:42;;;;;;;17.40;11.20;;;;;;;12.81;58.19;102385.75;107061;1254;23435;-57
2024/03/11 06:19:10;;;;;;;17.40;10.70;;;;;;;12.85;58.06;102390.78;106753;1273;24195;-57
2024/03/11 06:21:38;;;;;;;15.30;11.70;;;;;;;12.88;57.91;102397.39;107068;1254;22671;-56
2024/03/11 06:24:05;;;;;;;16.30;10.50;;;;;;;12.92;57.93;102401.88;107013;1251;25352;-57
2024/03/11 06:26:34;;;;;;;15.00;11.00;;;;;;;12.97;57.77;102412.84;106780;1267;22518;-57
2024/03/11 06:29:02;;;;;;;15.90;10.90;;;;;;;13.03;57.57;102419.95;107037;1252;25333;-56
2024/03/11 06:31:30;;;;;;;19.40;11.10;;;;;;;13.07;57.45;102420.83;106845;1259;24235;-56
2024/03/11 06:33:57;;;;;;;18.80;10.80;;;;;;;12.94;57.73;102423.83;106851;1267;25369;-56
2024/03/11 06:36:24;;;;;;;12.50;10.80;;;;;;;13.12;57.20;102427.09;106719;1261;25383;-57
2024/03/11 06:38:52;;;;;;;14.60;11.80;;;;;;;13.04;57.41;102428.84;106798;1261;25379;-56
2024/03/11 06:41:22;;;;;;;17.50;11.70;;;;;;;13.19;57.01;102429.48;107167;1257;25358;-56
2024/03/11 06:43:49;;;;;;;17.70;10.70;;;;;;;13.28;56.67;102429.94;107133;1258;25341;-57
2024/03/11 06:46:16;;;;;;;15.50;10.80;;;;;;;13.33;56.53;102434.61;106766;1267;25369;-57
2024/03/11 06:48:43;;;;;;;16.70;11.50;;;;;;;13.38;56.40;102433.70;107123;1251;22520;-56
2024/03/11 06:51:10;;;;;;;13.40;10.90;;;;;;;13.41;56.18;102433.50;107109;1256;25369;-56
2024/03/11 06:53:38;;;;;;;14.80;11.30;;;;;;;13.44;55.96;102432.96;106880;1260;22538;-57
2024/03/11 06:56:11;;;;;;;15.30;10.90;;;;;;;13.46;55.82;102432.77;107139;1267;25535;-57
2024/03/11 06:58:41;;;;;;;17.60;10.30;;;;;;;13.49;55.78;102434.50;107003;1267;25341;-56
2024/03/11 07:01:10;;;;;;;15.60;10.70;;;;;;;13.52;55.69;102435.17;107041;1251;22740;-57
2024/03/11 07:03:37;;;;;;;14.30;10.70;;;;;;;13.45;55.79;102436.45;107103;1267;25393;-57
2024/03/11 07:06:05;;;;;;;14.00;10.50;;;;;;;13.33;56.24;102440.89;107112;1254;25500;-56
2024/03/11 07:08:32;;;;;;;13.20;10.60;;;;;;;13.33;56.17;102444.03;106854;1271;25334;-56
2024/03/11 07:11:01;;;;;;;13.40;10.50;;;;;;;13.36;56.06;102442.09;107069;1269;25415;-56
2024/03/11 07:13:35;;;;;;;13.70;10.40;;;;;;;13.38;56.06;102445.04;107199;1253;22542;-56
2024/03/11 07:16:06;;;;;;;13.00;9.90;;;;;;;13.59;55.60;102440.88;106663;1264;25419;-57
2024/03/11 07:18:33;;;;;;;12.90;9.80;;;;;;;13.69;55.29;102441.85;107148;1267;23183;-56
2024/03/11 07:21:05;;;;;;;14.60;10.30;;;;;;;13.70;55.17;102445.86;107049;1271;25401;-56
2024/03/11 07:23:33;;;;;;;14.20;10.80;;;;;;;13.71;55.26;102446.36;106877;1270;25493;-57
2024/03/11 07:26:01;;;;;;;15.90;11.30;;;;;;;13.74;55.07;102450.89;106792;1269;25364;-57
2024/03/11 07:28:29;;;;;;;12.80;10.30;;;;;;;13.76;55.08;102445.98;107040;1267;25379;-56
2024/03/11 07:30:56;;;;;;;15.80;10.80;;;;;;;13.80;55.04;102450.48;107137;1267;25341;-56
2024/03/11 07:33:23;;;;;;;15.70;10.10;;;;;;;13.82;55.00;102451.16;106996;1274;24253;-56
2024/03/11 07:35:52;;;;;;;13.50;10.60;;;;;;;13.87;54.86;102452.52;107131;1267;25366;-56
2024/03/11 07:38:23;;;;;;;12.70;9.80;;;;;;;13.90;54.80;102454.23;106829;1269;25418;-56
2024/03/11 07:40:50;;;;;;;12.50;9.40;;;;;;;13.95;54.78;102455.60;107138;1267;22698;-56
2024/03/11 07:43:18;;;;;;;12.60;10.40;;;;;;;14.01;54.66;102457.81;106785;1267;25402;-56
2024/03/11 07:45:44;;;;;;;14.70;11.00;;;;;;;14.04;54.45;102458.65;106809;1267;23917;-56
2024/03/11 07:48:14;;;;;;;14.00;9.80;;;;;;;13.89;54.66;102461.22;107110;1267;24031;-56
2024/03/11 07:50:41;;;;;;;13.40;9.90;;;;;;;13.88;54.64;102462.09;107041;1267;25428;-57
2024/03/11 07:53:12;;;;;;;12.50;9.40;;;;;;;14.05;54.13;102463.36;107044;1267;24212;-56
2024/03/11 07:55:39;;;;;;;14.10;9.70;;;;;;;14.22;53.45;102465.63;107116;1271;25439;-56
2024/03/11 07:58:07;;;;;;;13.70;10.50;;;;;;;14.27;53.24;102464.73;107118;1267;25873;-55
2024/03/11 08:00:36;;;;;;;11.80;10.00;;;;;;;14.33;52.94;102468.17;106907;1257;25366;-56
2024/03/11 08:03:03;;;;;;;11.10;9.30;;;;;;;14.39;52.68;102465.68;106786;1273;25375;-56
2024/03/11 08:05:34;;;;;;;13.40;9.70;;;;;;;14.43;52.48;102465.80;106780;1274;25379;-56
2024/03/11 08:08:01;;;;;;;12.00;9.70;;;;;;;14.49;52.30;102465.21;106920;1267;25379;-56
2024/03/11 08:10:28;;;;;;;10.70;9.40;;;;;;;14.53;52.17;102466.56;107009;1267;25428;-56
2024/03/11 08:12:57;;;;;;;12.50;9.80;;;;;;;14.59;51.97;102468.77;107077;1267;25351;-56
2024/03/11 08:15:24;;;;;;;11.80;9.50;;;;;;;14.65;51.78;102471.84;107031;1267;25439;-56
2024/03/11 08:17:52;;;;;;;14.50;9.80;;;;;;;14.69;51.47;102471.44;107078;1267;25509;-56
2024/03/11 08:20:20;;;;;;;12.30;9.80;;;;;;;14.72;51.38;102475.26;107105;1251;24385;-56
2024/03/11 08:22:49;;;;;;;12.70;9.40;;;;;;;14.76;51.14;102473.64;107221;1251;25359;-56
2024/03/11 08:25:22;;;;;;;12.00;9.10;;;;;;;14.78;50.97;102469.59;107046;1267;26659;-56
2024/03/11 08:27:52;;;;;;;11.20;8.90;;;;;;;14.81;50.93;102471.31;107015;1267;25469;-56
2024/03/11 08:30:21;;;;;;;10.70;8.70;;;;;;;14.84;50.77;102469.54;107003;1272;24221;-56
2024/03/11 08:32:49;;;;;;;15.50;8.90;;;;;;;14.88;50.68;102473.33;107105;1267;24288;-56
2024/03/11 08:35:24;;;;;;;12.60;9.20;;;;;;;14.91;50.63;102475.90;107135;1268;25399;-57
2024/03/11 08:37:51;;;;;;;10.70;8.50;;;;;;;14.95;50.51;102472.88;107012;1267;23900;-56
2024/03/11 08:40:19;;;;;;;12.40;8.70;;;;;;;14.98;50.33;102473.55;106673;1267;24349;-56
2024/03/11 08:42:50;;;;;;;10.90;8.60;;;;;;;15.01;50.17;102476.47;107058;1267;22562;-56
2024/03/11 08:45:23;;;;;;;10.80;8.70;;;;;;;15.03;50.05;102475.22;106801;1267;25413;-56
2024/03/11 08:47:51;;;;;;;12.70;8.60;;;;;;;15.06;49.90;102474.30;106723;1273;25582;-56
2024/03/11 08:50:21;;;;;;;9.60;8.30;;;;;;;15.08;49.62;102470.80;107141;1267;23864;-56
2024/03/11 08:52:49;;;;;;;9.00;8.00;;;;;;;15.11;49.63;102471.63;107124;1267;25492;-56
2024/03/11 08:55:16;;;;;;;11.30;8.70;;;;;;;15.13;49.56;102468.28;107070;1272;25373;-56
2024/03/11 08:57:49;;;;;;;14.40;9.10;;;;;;;15.15;49.59;102467.90;106823;1271;25533;-56
2024/03/11 09:00:16;;;;;;;10.30;8.30;;;;;;;15.19;49.44;102473.44;107060;1267;25355;-56
2024/03/11 09:02:47;;;;;;;11.60;8.80;;;;;;;15.21;49.29;102476.02;107137;1267;24285;-56
2024/03/11 09:05:17;;;;;;;11.80;8.40;;;;;;;15.23;49.23;102473.54;107020;1267;25341;-56
2024/03/11 09:07:46;;;;;;;15.30;9.60;;;;;;;15.24;49.18;102472.85;107051;1267;22542;-56
2024/03/11 09:10:14;;;;;;;10.20;8.60;;;;;;;15.26;49.24;102474.23;107151;1267;25414;-56
2024/03/11 09:12:42;;;;;;;10.40;8.40;;;;;;;15.28;49.06;102477.34;107089;1267;25870;-56
2024/03/11 09:15:15;;;;;;;11.30;8.30;;;;;;;15.30;49.02;102474.67;107135;1267;25340;-56
2024/03/11 09:17:47;;;;;;;10.40;8.80;;;;;;;15.32;48.88;102475.52;107054;1274;25379;-56
2024/03/11 09:20:17;;;;;;;13.00;8.80;;;;;;;15.34;48.85;102472.89;107063;1267;25501;-56
2024/03/11 09:22:46;;;;;;;13.50;8.50;;;;;;;15.33;48.79;102469.91;106872;1267;25341;-56
2024/03/11 09:25:18;;;;;;;12.00;8.60;;;;;;;15.33;48.76;102475.17;107023;1271;25501;-56
2024/03/11 09:28:00;;;;;;;12.20;8.70;;;;;;;15.31;48.82;102479.04;106084;1271;1002907;-56
2024/03/11 09:30:31;;;;;;;9.50;8.40;;;;;;;15.29;48.88;102479.07;106814;1268;25377;-56
2024/03/11 09:32:58;;;;;;;11.40;8.60;;;;;;;15.28;49.03;102477.00;107136;1271;24400;-56
2024/03/11 09:35:25;;;;;;;9.80;8.30;;;;;;;15.28;48.95;102477.16;107043;1266;25352;-56
2024/03/11 09:37:52;;;;;;;11.80;9.00;;;;;;;15.26;48.87;102477.56;107126;1256;24538;-56
2024/03/11 09:40:23;;;;;;;11.50;8.30;;;;;;;15.22;48.90;102475.66;107057;1267;25428;-56
2024/03/11 09:42:54;;;;;;;11.50;8.70;;;;;;;15.05;49.29;102470.83;107030;1266;24245;-56
2024/03/11 09:45:23;;;;;;;10.60;8.50;;;;;;;14.84;49.91;102468.65;107020;1267;25379;-57
2024/03/11 09:47:57;;;;;;;10.50;8.70;;;;;;;14.79;50.14;102471.34;106627;1269;22534;-56
2024/03/11 09:50:30;;;;;;;9.90;8.30;;;;;;;14.75;50.39;102472.08;107158;1267;22534;-56
2024/03/11 09:53:00;;;;;;;11.50;9.30;;;;;;;14.74;50.51;102475.58;107062;1259;24218;-56
2024/03/11 09:55:31;;;;;;;12.20;8.60;;;;;;;14.73;50.66;102476.98;107068;1269;25389;-56
2024/03/11 09:58:02;;;;;;;11.70;9.20;;;;;;;14.76;50.76;102483.09;107137;1269;25482;-56
2024/03/11 10:00:32;;;;;;;11.30;8.90;;;;;;;14.98;50.38;102482.11;107046;1270;22645;-56
2024/03/11 10:03:02;;;;;;;9.70;8.20;;;;;;;15.06;50.29;102480.61;106980;1267;22542;-56
2024/03/11 10:05:33;;;;;;;11.50;9.20;;;;;;;15.11;50.18;102475.64;106794;1275;25379;-56
2024/03/11 10:08:01;;;;;;;9.80;8.60;;;;;;;15.15;50.11;102477.69;107055;1267;25429;-56
2024/03/11 10:10:29;;;;;;;10.90;8.60;;;;;;;15.19;50.08;102482.17;107129;1267;25390;-56
2024/03/11 10:12:58;;;;;;;13.00;9.30;;;;;;;15.21;49.98;102483.72;106801;1273;25529;-56
2024/03/11 10:15:30;;;;;;;13.10;9.10;;;;;;;15.22;49.92;102483.54;107127;1267;25392;-56
2024/03/11 10:18:02;;;;;;;13.90;8.90;;;;;;;15.22;49.97;102486.15;107029;1274;22607;-56
2024/03/11 10:20:34;;;;;;;11.20;8.70;;;;;;;15.23;49.96;102490.50;106832;1267;22551;-56
2024/03/11 10:23:09;;;;;;;12.30;8.90;;;;;;;15.26;49.95;102494.15;107262;1267;25341;-56
2024/03/11 10:25:36;;;;;;;13.20;8.60;;;;;;;15.30;49.80;102496.55;106870;1269;24489;-56
2024/03/11 10:28:04;;;;;;;10.90;8.80;;;;;;;15.32;49.82;102495.48;107101;1269;25380;-56
2024/03/11 10:30:32;;;;;;;10.90;8.60;;;;;;;15.35;49.73;102495.23;106755;1270;25423;-56
2024/03/11 10:33:02;;;;;;;10.30;8.80;;;;;;;15.36;49.69;102495.23;106829;1267;25430;-55
2024/03/11 10:35:33;;;;;;;14.40;9.10;;;;;;;15.38;49.72;102496.08;106796;1267;25552;-56
2024/03/11 10:38:12;;;;;;;13.10;9.10;;;;;;;15.39;49.58;102491.69;106766;1268;25593;-56
2024/03/11 10:40:39;;;;;;;11.00;8.50;;;;;;;15.27;49.82;102495.52;106785;1267;25412;-56
2024/03/11 10:43:23;;;;;;;11.40;8.00;;;;;;;15.16;50.14;102497.95;106972;1267;25400;-56
2024/03/11 10:45:51;;;;;;;12.90;8.80;;;;;;;15.15;50.23;102496.73;107177;1267;25497;-56
2024/03/11 10:48:18;;;;;;;12.60;8.10;;;;;;;15.15;50.23;102496.21;107077;1267;25361;-56
2024/03/11 10:50:45;;;;;;;10.30;8.30;;;;;;;15.14;50.26;102499.20;107067;1267;26892;-56
2024/03/11 10:53:23;;;;;;;10.30;8.10;;;;;;;15.12;50.32;102505.86;106794;1272;22767;-56
2024/03/11 10:55:54;;;;;;;17.00;8.40;;;;;;;15.15;50.21;102506.89;106862;1269;25349;-56
2024/03/11 10:58:28;;;;;;;10.30;8.10;;;;;;;15.21;50.07;102507.33;106805;1267;26504;-56
2024/03/11 11:00:56;;;;;;;12.40;8.50;;;;;;;15.12;50.21;102508.14;106783;1270;25362;-55
2024/03/11 11:03:23;;;;;;;13.80;8.10;;;;;;;15.25;49.91;102507.27;107002;1268;25386;-54
2024/03/11 11:06:01;;;;;;;9.60;7.50;;;;;;;15.35;49.57;102504.17;106883;1275;24316;-54
2024/03/11 11:08:31;;;;;;;17.50;9.00;;;;;;;15.35;49.54;102503.80;106210;1268;1002342;-54
2024/03/11 11:11:00;;;;;;;16.60;8.40;;;;;;;15.36;49.48;102507.83;107010;1270;25351;-54